KIXA

Halifax-Northampton Regional Airport

Roanoke Rapids, North Carolina, USA
METAR KIXA 190315Z AUTO 22006KT 10SM CLR M02/M06 A3020 RMK AO2
Observed Flight Rules
Jan-19 @ 03:15 UTC (29 minutes ago) Visual Flight Rules
Wind Visibility Clouds
220° at 6 knots 10 miles
  • Clear skies
Temperatures Readings
Current -2°C / 28°F
Dewpoint -6°C / 21°F
Humidity 74%
Altimeter 30.2" Hg
Pressure 1023 hPa
Elevation 44
METAR KIXA 190315Z AUTO 22006KT 10SM CLR M02/M06 A3020 RMK AO2
Observed Flight Rules
Jan-19 @ 03:15 UTC
(29 minutes ago)
VFR
Wind Visibility
220° at 6 knots 10 miles
Clouds
  • Clear skies
Temperature Dewpoint
-2°C / 28°F -6°C / 21°F
Humidity Altimeter Pressure
74% 30.2" Hg 1023 hPa